Time;durP1;ratioP1;P1;durP2;ratioP2;P2;SDS_P1;SDS_P2;PMS_P1;PMS_P2;Temp;Humidity;BMP_temperature;BMP_pressure;BME280_temperature;BME280_humidity;BME280_pressure;Samples;Min_cycle;Max_cycle;Signal;HPM_P1;HPM_P2
2023/10/26 00:01:28;;;;;;;28.60;14.65;;;;;;;8.52;59.08;99594.47;4976995;28;20062;-71
2023/10/26 00:03:53;;;;;;;29.38;15.23;;;;;;;8.32;59.54;99598.91;4982871;28;20050;-72
2023/10/26 00:06:19;;;;;;;29.20;14.88;;;;;;;8.47;59.58;99591.22;4986674;28;20030;-71
2023/10/26 00:08:45;;;;;;;25.23;13.73;;;;;;;8.43;59.55;99594.94;4976008;28;20062;-72
2023/10/26 00:11:10;;;;;;;23.67;14.50;;;;;;;8.40;59.84;99592.47;4980676;28;20042;-70
2023/10/26 00:13:36;;;;;;;25.85;14.80;;;;;;;8.46;59.49;99594.75;4965054;28;20125;-71
2023/10/26 00:16:02;;;;;;;23.52;13.10;;;;;;;8.48;59.25;99603.34;4978546;28;20031;-70
2023/10/26 00:18:27;;;;;;;24.88;13.80;;;;;;;8.46;59.34;99595.59;4980140;28;20037;-70
2023/10/26 00:21:00;;;;;;;27.15;15.32;;;;;;;8.35;59.54;99597.91;4977040;28;20216;-70
2023/10/26 00:23:25;;;;;;;29.52;15.10;;;;;;;8.13;60.08;99599.00;4992572;28;20095;-70
2023/10/26 00:25:51;;;;;;;26.75;14.70;;;;;;;8.45;59.35;99601.75;4979145;28;20034;-71
2023/10/26 00:28:16;;;;;;;25.63;14.88;;;;;;;8.52;59.18;99604.88;4983725;28;20121;-71
2023/10/26 00:30:42;;;;;;;26.52;15.15;;;;;;;8.33;59.75;99594.53;4975185;28;20038;-74
2023/10/26 00:33:09;;;;;;;26.35;15.65;;;;;;;8.53;59.19;99603.94;4967818;28;20041;-73
2023/10/26 00:35:35;;;;;;;23.23;14.88;;;;;;;8.65;59.18;99611.13;4985256;28;20037;-74
2023/10/26 00:38:00;;;;;;;28.23;16.20;;;;;;;8.53;59.33;99604.78;4966065;28;20588;-74
2023/10/26 00:40:26;;;;;;;26.35;15.05;;;;;;;8.65;59.18;99605.91;4985053;28;20559;-74
2023/10/26 00:42:51;;;;;;;32.95;16.70;;;;;;;8.57;59.36;99613.28;4960971;28;20507;-74
2023/10/26 00:45:18;;;;;;;36.80;17.60;;;;;;;8.48;59.53;99609.38;4990586;28;20050;-73
2023/10/26 00:47:44;;;;;;;31.70;18.38;;;;;;;8.57;59.41;99613.28;4959310;28;20280;-74
2023/10/26 00:50:10;;;;;;;27.83;16.13;;;;;;;8.45;59.61;99608.69;4992736;28;20781;-73
2023/10/26 00:52:36;;;;;;;36.88;15.43;;;;;;;8.60;59.48;99612.28;4977550;28;20056;-73
2023/10/26 00:55:05;;;;;;;28.60;15.98;;;;;;;8.47;59.30;99612.94;4983568;28;20089;-74
2023/10/26 00:57:31;;;;;;;27.05;15.00;;;;;;;8.42;59.81;99612.28;4968050;28;20085;-74
2023/10/26 00:59:58;;;;;;;31.48;16.65;;;;;;;8.50;59.32;99610.16;4979324;28;20042;-73
2023/10/26 01:02:25;;;;;;;29.98;16.67;;;;;;;8.36;59.65;99615.22;4979312;28;20357;-74
2023/10/26 01:04:50;;;;;;;31.10;16.15;;;;;;;8.43;59.18;99611.41;4959898;28;20758;-71
2023/10/26 01:07:16;;;;;;;25.95;15.30;;;;;;;8.39;59.59;99619.44;4984492;28;20041;-71
2023/10/26 01:09:42;;;;;;;27.35;15.88;;;;;;;8.38;59.45;99618.56;4978180;28;20113;-71
2023/10/26 01:12:08;;;;;;;26.52;16.33;;;;;;;8.47;59.21;99612.94;4994270;28;20030;-71
2023/10/26 01:14:34;;;;;;;28.30;15.20;;;;;;;8.43;59.14;99610.56;4978765;28;21672;-67
2023/10/26 01:17:00;;;;;;;26.63;14.80;;;;;;;8.46;59.09;99611.22;4981830;28;20035;-74
2023/10/26 01:19:43;;;;;;;28.70;14.77;;;;;;;8.36;59.48;99610.88;4976513;28;20034;-72
2023/10/26 01:22:10;;;;;;;30.70;16.52;;;;;;;8.45;58.90;99606.94;4982255;28;20041;-70
2023/10/26 01:24:36;;;;;;;34.67;15.60;;;;;;;8.47;59.17;99610.31;4978680;28;20045;-70
2023/10/26 01:27:02;;;;;;;25.63;13.60;;;;;;;8.46;58.81;99611.22;4985939;28;20034;-71
2023/10/26 01:29:27;;;;;;;30.85;13.88;;;;;;;8.41;59.23;99615.84;4979104;28;20088;-71
2023/10/26 01:31:53;;;;;;;26.13;13.38;;;;;;;8.40;59.26;99615.91;4980380;28;20641;-71
2023/10/26 01:34:18;;;;;;;29.90;14.30;;;;;;;8.33;59.54;99615.38;4982724;28;20038;-71
2023/10/26 01:36:44;;;;;;;21.98;12.85;;;;;;;8.32;59.68;99621.50;4978216;28;20057;-71
2023/10/26 01:39:11;;;;;;;23.77;13.90;;;;;;;8.30;59.45;99621.56;4982097;28;20372;-71
2023/10/26 01:41:37;;;;;;;24.17;13.20;;;;;;;8.40;59.18;99618.50;4980746;28;20219;-71
2023/10/26 01:44:03;;;;;;;24.00;13.52;;;;;;;8.41;59.33;99623.66;4986248;28;20563;-71
2023/10/26 01:46:29;;;;;;;31.10;14.68;;;;;;;8.38;59.37;99629.00;4996803;28;20045;-68
2023/10/26 01:48:54;;;;;;;27.20;14.75;;;;;;;8.35;59.29;99623.94;4978255;28;20323;-68
2023/10/26 01:51:20;;;;;;;27.98;13.65;;;;;;;8.36;59.61;99630.84;4982978;28;20022;-68
2023/10/26 01:53:45;;;;;;;27.98;13.88;;;;;;;8.17;59.66;99630.09;4967217;28;20101;-68
2023/10/26 01:56:11;;;;;;;26.63;14.05;;;;;;;8.17;60.00;99630.09;4985874;28;20481;-68
2023/10/26 01:58:36;;;;;;;28.17;14.10;;;;;;;8.15;59.99;99633.59;4980511;28;20054;-69
2023/10/26 02:01:02;;;;;;;25.70;13.45;;;;;;;8.30;59.73;99626.78;4992951;28;20179;-69
2023/10/26 02:03:27;;;;;;;27.23;12.75;;;;;;;8.29;59.39;99629.44;4981798;28;20037;-69
2023/10/26 02:05:53;;;;;;;22.58;13.82;;;;;;;8.34;59.54;99622.28;4981789;28;20101;-71
2023/10/26 02:08:19;;;;;;;26.83;14.05;;;;;;;8.26;59.48;99619.22;4979312;28;20038;-73
2023/10/26 02:10:44;;;;;;;24.50;12.77;;;;;;;8.29;59.52;99625.13;4980869;28;20117;-74
2023/10/26 02:13:10;;;;;;;28.77;15.27;;;;;;;8.20;59.64;99629.91;4982698;28;20078;-73
2023/10/26 02:15:35;;;;;;;25.33;14.00;;;;;;;8.30;59.72;99636.38;4984836;28;20041;-72
2023/10/26 02:18:02;;;;;;;28.65;13.38;;;;;;;8.26;59.26;99630.47;4983446;28;20631;-74
2023/10/26 02:20:27;;;;;;;31.08;14.27;;;;;;;8.28;59.45;99622.59;4989907;28;20323;-73
2023/10/26 02:22:56;;;;;;;27.70;13.20;;;;;;;8.34;59.28;99627.50;4983381;28;20509;-73
2023/10/26 02:25:21;;;;;;;34.65;15.13;;;;;;;8.21;59.44;99636.81;4985123;28;20037;-73
2023/10/26 02:27:47;;;;;;;29.15;14.50;;;;;;;8.17;59.48;99630.09;4957507;28;20064;-69
2023/10/26 02:30:12;;;;;;;25.42;12.43;;;;;;;8.20;59.63;99628.16;4972778;28;20083;-67
2023/10/26 02:32:39;;;;;;;27.55;13.70;;;;;;;8.08;59.61;99632.22;4988056;28;20046;-67
2023/10/26 02:35:06;;;;;;;26.95;13.35;;;;;;;8.15;59.17;99632.75;4986154;28;20121;-66
2023/10/26 02:37:33;;;;;;;28.13;13.23;;;;;;;8.11;59.52;99629.47;4978699;28;20049;-66
2023/10/26 02:39:59;;;;;;;26.73;13.73;;;;;;;8.28;59.32;99638.19;4977358;28;20108;-64
2023/10/26 02:42:24;;;;;;;27.85;13.95;;;;;;;8.32;58.99;99639.72;4979140;28;20053;-69
2023/10/26 02:44:51;;;;;;;25.02;13.73;;;;;;;8.23;58.76;99635.00;4975705;28;20030;-70
2023/10/26 02:47:16;;;;;;;22.70;12.68;;;;;;;8.30;58.72;99646.78;4983364;28;20034;-70
2023/10/26 02:49:42;;;;;;;23.25;11.95;;;;;;;8.15;59.05;99636.19;4978117;28;20030;-71
2023/10/26 02:52:07;;;;;;;23.45;13.32;;;;;;;8.10;58.87;99647.75;4984051;28;20042;-71
2023/10/26 02:54:34;;;;;;;24.95;13.18;;;;;;;8.24;58.79;99647.06;4978273;28;23210;-71
2023/10/26 02:56:59;;;;;;;32.83;12.90;;;;;;;8.32;58.44;99647.53;4982550;28;20076;-71
2023/10/26 02:59:25;;;;;;;24.33;11.95;;;;;;;8.31;58.36;99643.25;4981733;28;20585;-66
2023/10/26 03:01:50;;;;;;;19.75;11.82;;;;;;;8.28;58.66;99648.63;4975297;28;20062;-67
2023/10/26 03:04:16;;;;;;;24.15;11.77;;;;;;;8.34;58.17;99648.31;4983705;28;20038;-66
2023/10/26 03:06:41;;;;;;;23.48;12.13;;;;;;;8.30;58.21;99649.38;4978845;28;20501;-67
2023/10/26 03:09:10;;;;;;;30.58;12.55;;;;;;;8.25;58.41;99646.13;4977047;28;20057;-65
2023/10/26 03:11:36;;;;;;;24.02;12.23;;;;;;;8.15;58.49;99648.38;4978253;28;20030;-65
2023/10/26 03:14:02;;;;;;;27.65;13.05;;;;;;;8.22;58.51;99646.31;4973840;28;20448;-64
2023/10/26 03:16:28;;;;;;;19.63;11.57;;;;;;;8.23;58.21;99642.81;4984925;28;20065;-65
2023/10/26 03:18:53;;;;;;;22.63;12.23;;;;;;;8.27;58.50;99652.13;4975037;28;20046;-66
2023/10/26 03:21:20;;;;;;;21.88;13.10;;;;;;;8.20;58.31;99645.53;4978291;28;20034;-66
2023/10/26 03:23:52;;;;;;;22.58;11.68;;;;;;;8.23;58.65;99642.81;4976351;28;20047;-65
2023/10/26 03:26:18;;;;;;;;;;;;;;;8.17;58.55;99638.72;4980451;28;20035;-64
2023/10/26 03:28:44;;;;;;;20.25;12.02;;;;;;;8.18;58.50;99642.16;4978240;28;19922;-69
2023/10/26 03:31:11;;;;;;;20.80;11.93;;;;;;;8.16;58.62;99639.66;4975076;28;20388;-69
2023/10/26 03:33:37;;;;;;;25.27;13.43;;;;;;;8.14;58.50;99651.91;4980743;28;20038;-69
2023/10/26 03:36:03;;;;;;;21.65;12.43;;;;;;;8.16;58.51;99642.25;4977351;28;20045;-69
2023/10/26 03:38:28;;;;;;;23.67;12.85;;;;;;;8.15;58.56;99644.00;4969832;28;20117;-69
2023/10/26 03:40:54;;;;;;;27.48;12.85;;;;;;;8.04;58.94;99643.69;4969566;28;20504;-69
2023/10/26 03:43:19;;;;;;;23.67;11.85;;;;;;;8.13;58.59;99645.00;4977078;28;20033;-68
2023/10/26 03:45:45;;;;;;;28.73;13.60;;;;;;;8.07;58.77;99640.97;4985933;28;20121;-68
2023/10/26 03:48:10;;;;;;;24.25;12.40;;;;;;;7.99;58.82;99637.03;4988670;28;20046;-68
2023/10/26 03:50:36;;;;;;;23.45;13.50;;;;;;;8.08;58.77;99642.63;4980879;28;20117;-67
2023/10/26 03:53:02;;;;;;;26.60;13.02;;;;;;;8.03;58.38;99639.41;4974207;28;20050;-67
2023/10/26 03:55:27;;;;;;;21.85;12.50;;;;;;;8.04;58.77;99640.25;4979711;28;20046;-68
2023/10/26 03:57:52;;;;;;;23.27;12.63;;;;;;;7.90;58.42;99640.94;4982286;28;20046;-67
2023/10/26 04:00:18;;;;;;;29.98;13.50;;;;;;;7.96;58.80;99643.25;4980947;28;20588;-69
2023/10/26 04:02:44;;;;;;;28.05;12.43;;;;;;;8.02;58.80;99652.50;4978412;28;20071;-69
2023/10/26 04:05:10;;;;;;;20.73;11.25;;;;;;;8.04;58.48;99650.66;4974406;28;20993;-68
2023/10/26 04:07:38;;;;;;;21.65;11.30;;;;;;;8.03;58.33;99657.63;4987682;28;20069;-68
2023/10/26 04:10:05;;;;;;;20.45;11.82;;;;;;;8.02;58.46;99658.53;4981605;28;20033;-68
2023/10/26 04:12:31;;;;;;;24.38;12.00;;;;;;;8.01;58.08;99654.25;4978805;28;20133;-68
2023/10/26 04:14:56;;;;;;;21.67;11.55;;;;;;;8.01;58.35;99662.06;4977934;28;20064;-69
2023/10/26 04:17:22;;;;;;;23.77;12.43;;;;;;;8.02;58.09;99663.72;4975049;28;20964;-69
2023/10/26 04:19:47;;;;;;;21.00;11.07;;;;;;;8.00;58.22;99662.97;4978334;28;20041;-73
2023/10/26 04:22:12;;;;;;;20.17;10.25;;;;;;;8.09;58.22;99664.28;4976756;28;20030;-73
2023/10/26 04:24:38;;;;;;;23.10;11.63;;;;;;;8.07;58.15;99672.19;4979177;28;20461;-73
2023/10/26 04:27:03;;;;;;;25.10;12.00;;;;;;;8.01;58.00;99666.44;4981703;28;20045;-69
2023/10/26 04:29:29;;;;;;;23.15;11.98;;;;;;;7.90;58.40;99661.75;4992465;28;20489;-69
2023/10/26 04:31:55;;;;;;;21.17;12.07;;;;;;;7.88;57.86;99656.59;4984568;28;20124;-69
2023/10/26 04:34:20;;;;;;;25.77;11.55;;;;;;;7.79;58.37;99661.41;4979717;28;20046;-67
2023/10/26 04:36:46;;;;;;;23.50;11.55;;;;;;;7.69;58.62;99655.78;4978304;28;20030;-67
2023/10/26 04:39:12;;;;;;;26.75;12.23;;;;;;;7.69;58.56;99659.25;4974577;28;20046;-66
2023/10/26 04:41:38;;;;;;;23.05;10.88;;;;;;;7.62;58.54;99650.03;4975793;28;20034;-67
2023/10/26 04:44:07;;;;;;;23.17;11.73;;;;;;;7.74;58.14;99654.66;4973476;28;20044;-68
2023/10/26 04:46:33;;;;;;;19.48;10.65;;;;;;;7.79;58.36;99651.84;4992734;28;20031;-67
2023/10/26 04:49:00;;;;;;;22.65;10.82;;;;;;;7.73;58.39;99654.72;4976538;28;20042;-67
2023/10/26 04:51:25;;;;;;;20.88;11.20;;;;;;;7.69;58.30;99651.44;4983068;28;20436;-67
2023/10/26 04:53:51;;;;;;;24.75;12.15;;;;;;;7.68;58.20;99649.75;4978858;28;20508;-68
2023/10/26 04:56:16;;;;;;;29.05;12.68;;;;;;;7.59;58.28;99660.59;5010053;28;20034;-70
2023/10/26 04:58:43;;;;;;;23.98;11.05;;;;;;;7.48;57.94;99650.66;4980392;28;20133;-72
2023/10/26 05:01:09;;;;;;;27.73;12.30;;;;;;;7.37;58.46;99659.88;4977725;28;20034;-71
2023/10/26 05:03:34;;;;;;;24.15;10.95;;;;;;;7.30;58.54;99665.34;4986193;28;20112;-73
2023/10/26 05:06:00;;;;;;;21.40;11.27;;;;;;;7.21;58.49;99663.16;4984855;28;20048;-72
2023/10/26 05:08:26;;;;;;;25.83;11.93;;;;;;;7.11;58.72;99662.75;4988656;28;21931;-72
2023/10/26 05:10:51;;;;;;;18.88;11.00;;;;;;;7.06;58.54;99656.06;4991753;28;20161;-71
2023/10/26 05:13:17;;;;;;;19.85;11.45;;;;;;;7.00;58.51;99657.19;4977204;28;20038;-72
2023/10/26 05:15:44;;;;;;;22.00;10.57;;;;;;;6.97;58.51;99657.31;4982932;28;20046;-73
2023/10/26 05:18:09;;;;;;;20.42;10.65;;;;;;;6.80;58.71;99652.88;4966044;28;20049;-73
2023/10/26 05:20:35;;;;;;;17.75;10.48;;;;;;;6.70;58.82;99644.63;4980441;28;20045;-72
2023/10/26 05:23:02;;;;;;;21.60;11.80;;;;;;;6.59;58.85;99646.84;4974561;28;20484;-72
2023/10/26 05:25:28;;;;;;;23.45;12.70;;;;;;;6.50;58.94;99652.44;4983482;28;20628;-70
2023/10/26 05:27:53;;;;;;;22.80;10.77;;;;;;;6.43;59.19;99651.84;4980833;28;20049;-70
2023/10/26 05:30:19;;;;;;;22.42;11.10;;;;;;;6.35;59.26;99648.75;4977387;28;20026;-70
2023/10/26 05:32:44;;;;;;;20.88;10.48;;;;;;;6.34;59.19;99647.03;4981941;28;20073;-70
2023/10/26 05:35:10;;;;;;;20.42;9.88;;;;;;;6.28;58.84;99648.16;4981355;28;20120;-70
2023/10/26 05:37:36;;;;;;;19.70;9.90;;;;;;;6.25;59.27;99645.63;4981235;28;20045;-70
2023/10/26 05:40:04;;;;;;;20.27;11.75;;;;;;;6.26;59.02;99649.06;4980430;28;20033;-70
2023/10/26 05:42:30;;;;;;;20.55;9.70;;;;;;;6.21;58.95;99645.84;4980782;28;20038;-72
2023/10/26 05:44:56;;;;;;;23.08;11.00;;;;;;;6.18;58.88;99645.97;4985678;28;20038;-70
2023/10/26 05:47:22;;;;;;;20.48;10.55;;;;;;;6.15;59.36;99646.06;4974746;28;20040;-72
2023/10/26 05:49:48;;;;;;;22.88;12.15;;;;;;;6.06;60.04;99644.69;4991053;28;20310;-73
2023/10/26 05:52:14;;;;;;;28.45;13.55;;;;;;;6.11;60.03;99641.94;4976087;28;20037;-69
2023/10/26 05:54:39;;;;;;;26.23;11.82;;;;;;;6.10;59.81;99648.88;4989054;28;20800;-72
2023/10/26 05:57:05;;;;;;;24.92;12.20;;;;;;;6.16;59.30;99652.97;4978065;28;20052;-68
2023/10/26 05:59:30;;;;;;;25.23;12.48;;;;;;;6.08;59.30;99661.91;4978008;28;20125;-69
2023/10/26 06:01:56;;;;;;;17.70;10.70;;;;;;;6.09;59.39;99663.59;4985815;28;20084;-71
2023/10/26 06:04:21;;;;;;;24.05;12.88;;;;;;;6.07;59.31;99652.44;4977947;28;20044;-72
2023/10/26 06:06:47;;;;;;;20.45;12.25;;;;;;;6.03;59.73;99666.44;4978909;28;20030;-70
2023/10/26 06:09:12;;;;;;;22.55;11.52;;;;;;;6.05;59.72;99662.03;4975105;28;20033;-71
2023/10/26 06:11:39;;;;;;;19.88;11.20;;;;;;;6.15;59.70;99667.69;4978886;28;20030;-70
2023/10/26 06:14:04;;;;;;;22.88;12.20;;;;;;;6.21;60.03;99675.22;4973324;28;20065;-71
2023/10/26 06:16:30;;;;;;;21.17;11.05;;;;;;;6.37;60.27;99669.41;4981310;28;20451;-70
2023/10/26 06:18:55;;;;;;;17.52;10.23;;;;;;;6.48;59.87;99670.69;4975260;28;20044;-71
2023/10/26 06:21:21;;;;;;;21.95;12.05;;;;;;;6.53;59.86;99677.41;4981442;28;20533;-69
2023/10/26 06:23:47;;;;;;;20.75;10.30;;;;;;;6.60;59.91;99674.50;4967217;28;20148;-71
2023/10/26 06:26:12;;;;;;;24.60;12.30;;;;;;;6.67;59.68;99669.91;4976042;28;20627;-71
2023/10/26 06:28:38;;;;;;;26.77;13.35;;;;;;;6.61;59.68;99670.16;4988465;28;20135;-72
2023/10/26 06:31:11;;;;;;;24.05;12.23;;;;;;;6.66;59.90;99669.06;4973918;28;20720;-70
2023/10/26 06:33:37;;;;;;;19.70;11.35;;;;;;;6.73;59.84;99655.78;4992982;28;20080;-71
2023/10/26 06:36:03;;;;;;;23.52;12.63;;;;;;;6.76;59.60;99664.31;4973556;28;20420;-70
2023/10/26 06:38:29;;;;;;;24.15;12.95;;;;;;;6.76;59.55;99668.66;4976185;28;20115;-70
2023/10/26 06:40:55;;;;;;;27.05;12.90;;;;;;;6.78;59.56;99662.47;4962354;28;20037;-68
2023/10/26 06:43:24;;;;;;;23.77;11.23;;;;;;;6.81;59.54;99659.75;4987341;28;20266;-70
2023/10/26 06:45:50;;;;;;;21.25;10.57;;;;;;;6.82;58.88;99661.44;4986449;28;20042;-70
2023/10/26 06:48:19;;;;;;;24.05;12.25;;;;;;;6.83;58.83;99665.72;4976312;28;20726;-70
2023/10/26 06:50:45;;;;;;;24.50;11.23;;;;;;;6.71;58.84;99666.25;4982444;28;20046;-69
2023/10/26 06:53:14;;;;;;;22.88;11.43;;;;;;;6.57;59.09;99666.81;4972855;28;20041;-69
2023/10/26 06:55:39;;;;;;;21.75;11.80;;;;;;;6.66;59.08;99675.97;4980890;28;20659;-69
2023/10/26 06:58:05;;;;;;;21.52;11.30;;;;;;;6.67;59.70;99677.69;4971345;28;20129;-69
2023/10/26 07:00:31;;;;;;;28.27;12.63;;;;;;;6.68;59.23;99679.34;4981131;28;20116;-69
2023/10/26 07:02:56;;;;;;;24.58;11.55;;;;;;;6.72;59.16;99678.31;4979455;28;20615;-68
2023/10/26 07:05:22;;;;;;;23.55;12.43;;;;;;;6.73;58.96;99669.63;4972418;28;20121;-69
2023/10/26 07:07:48;;;;;;;18.23;10.30;;;;;;;6.84;59.13;99670.00;4974963;28;20038;-69
2023/10/26 07:10:18;;;;;;;20.25;10.23;;;;;;;6.93;58.66;99675.69;4974717;28;20103;-68
2023/10/26 07:12:45;;;;;;;20.88;12.13;;;;;;;6.87;58.54;99674.22;4967005;28;20865;-68
2023/10/26 07:15:11;;;;;;;25.17;11.73;;;;;;;7.15;58.88;99676.44;4972788;28;20030;-68
2023/10/26 07:17:37;;;;;;;23.48;11.98;;;;;;;7.77;58.60;99669.28;4977323;28;20042;-68
2023/10/26 07:20:03;;;;;;;22.88;11.18;;;;;;;8.93;55.34;99673.06;4979920;28;20042;-68
2023/10/26 07:22:32;;;;;;;22.33;11.65;;;;;;;9.89;54.35;99673.19;4979071;28;20049;-68
2023/10/26 07:24:57;;;;;;;23.65;12.35;;;;;;;10.58;51.21;99672.63;4981173;28;20029;-68
2023/10/26 07:27:23;;;;;;;23.83;11.15;;;;;;;10.43;50.50;99666.53;4978406;28;20271;-67
2023/10/26 07:29:48;;;;;;;21.63;11.50;;;;;;;10.24;51.36;99678.16;4982677;28;20030;-70
2023/10/26 07:32:14;;;;;;;26.52;11.88;;;;;;;10.05;51.01;99673.97;4976261;28;20058;-68
2023/10/26 07:34:40;;;;;;;28.80;13.25;;;;;;;10.09;50.85;99675.50;4980833;28;20101;-69
2023/10/26 07:37:06;;;;;;;26.13;12.75;;;;;;;10.11;51.97;99676.25;4984721;28;20053;-69
2023/10/26 07:39:35;;;;;;;23.02;13.40;;;;;;;10.92;50.05;99681.09;4978289;28;20029;-67
2023/10/26 07:42:01;;;;;;;21.15;11.70;;;;;;;12.11;48.86;99671.94;4986160;28;20067;-69
2023/10/26 07:44:27;;;;;;;20.02;11.07;;;;;;;13.36;45.95;99672.22;4972640;28;20979;-68
2023/10/26 07:46:53;;;;;;;27.73;12.02;;;;;;;13.98;42.26;99662.56;4979493;28;20053;-69
2023/10/26 07:49:18;;;;;;;20.25;11.82;;;;;;;14.54;40.80;99665.38;4971367;28;20124;-68
2023/10/26 07:51:44;;;;;;;23.40;11.80;;;;;;;14.73;40.37;99670.91;4979881;28;20061;-68
2023/10/26 07:54:09;;;;;;;21.13;12.50;;;;;;;14.30;41.73;99668.03;4975450;28;20042;-69
2023/10/26 07:56:38;;;;;;;19.58;11.30;;;;;;;14.42;41.49;99674.22;4980790;28;20075;-69
2023/10/26 07:59:04;;;;;;;19.88;11.52;;;;;;;14.89;40.43;99670.56;4949400;28;20041;-69
2023/10/26 08:01:29;;;;;;;19.90;12.23;;;;;;;15.11;39.12;99672.38;4993983;28;20041;-69
2023/10/26 08:03:55;;;;;;;16.33;10.32;;;;;;;15.02;40.02;99665.22;4981733;28;20046;-68
2023/10/26 08:06:20;;;;;;;18.10;10.93;;;;;;;14.41;41.39;99659.38;4973468;28;20046;-69
2023/10/26 08:08:46;;;;;;;21.40;10.85;;;;;;;14.52;40.48;99662.03;4981973;28;20046;-69
2023/10/26 08:11:14;;;;;;;21.60;11.45;;;;;;;14.53;41.00;99671.59;4973438;28;20045;-69
2023/10/26 08:13:40;;;;;;;16.50;10.25;;;;;;;14.53;41.35;99671.59;4980691;28;20133;-69
2023/10/26 08:16:06;;;;;;;19.77;10.98;;;;;;;14.37;41.13;99669.28;4975605;28;20145;-68
2023/10/26 08:18:32;;;;;;;19.73;11.07;;;;;;;14.42;41.57;99661.06;4983984;28;20081;-69
2023/10/26 08:20:58;;;;;;;19.98;10.68;;;;;;;14.64;40.98;99676.06;4977583;28;20061;-69
2023/10/26 08:23:23;;;;;;;20.63;10.60;;;;;;;14.49;40.75;99670.16;4978903;28;20034;-69
2023/10/26 08:25:49;;;;;;;22.27;11.05;;;;;;;14.03;42.76;99669.16;4982982;28;20034;-69
2023/10/26 08:28:18;;;;;;;19.17;11.25;;;;;;;13.65;42.92;99666.69;4971609;28;20110;-69
2023/10/26 08:30:43;;;;;;;16.85;9.98;;;;;;;13.52;43.07;99666.72;4980985;28;20034;-68
2023/10/26 08:33:09;;;;;;;18.52;10.70;;;;;;;13.72;42.60;99668.75;4973947;28;20054;-69
2023/10/26 08:35:34;;;;;;;18.95;10.32;;;;;;;13.94;42.72;99675.94;4982727;28;20069;-69
2023/10/26 08:38:00;;;;;;;19.50;10.82;;;;;;;13.79;42.93;99668.34;4979165;28;20042;-69
2023/10/26 08:40:25;;;;;;;21.48;9.57;;;;;;;13.59;43.66;99680.28;4976386;28;20504;-68
2023/10/26 08:42:51;;;;;;;18.33;9.45;;;;;;;13.51;43.51;99680.78;4984768;28;20038;-69
2023/10/26 08:45:27;;;;;;;18.50;9.65;;;;;;;12.58;45.80;99681.03;4982371;28;20520;-69
2023/10/26 08:47:55;;;;;;;20.90;10.00;;;;;;;12.21;46.67;99688.72;4985956;28;20140;-69
2023/10/26 08:50:22;;;;;;;14.65;9.57;;;;;;;12.14;48.06;99682.22;4973871;28;20052;-69
2023/10/26 08:52:48;;;;;;;14.73;8.35;;;;;;;12.35;47.12;99679.13;4977632;28;20102;-68
2023/10/26 08:55:15;;;;;;;17.83;10.00;;;;;;;12.28;47.21;99676.88;4981222;28;20093;-69
2023/10/26 08:57:48;;;;;;;17.80;10.70;;;;;;;11.95;47.74;99682.56;4977833;28;20341;-69
2023/10/26 09:00:15;;;;;;;15.15;8.65;;;;;;;11.99;48.19;99672.72;4976970;28;20088;-69
2023/10/26 09:02:41;;;;;;;17.50;9.90;;;;;;;12.04;48.18;99678.50;4992894;28;20070;-69
2023/10/26 09:05:08;;;;;;;21.10;9.43;;;;;;;12.18;48.25;99678.47;4979161;28;20113;-69
2023/10/26 09:07:34;;;;;;;18.33;8.48;;;;;;;12.19;47.02;99679.28;4983859;28;20145;-68
2023/10/26 09:10:01;;;;;;;18.10;9.00;;;;;;;11.76;48.66;99676.81;4978787;28;20038;-69
2023/10/26 09:12:26;;;;;;;12.85;7.95;;;;;;;11.64;48.70;99674.03;4974073;28;20117;-69
2023/10/26 09:15:02;;;;;;;15.43;8.75;;;;;;;11.88;48.98;99684.72;4977868;28;20059;-69
2023/10/26 09:17:29;;;;;;;17.92;8.25;;;;;;;12.22;48.04;99689.56;4974938;28;20543;-68
2023/10/26 09:19:55;;;;;;;12.68;7.85;;;;;;;12.11;48.08;99687.66;4978944;28;20049;-68
2023/10/26 09:22:40;;;;;;;15.50;8.30;;;;;;;12.04;48.80;99688.97;4976652;28;20100;-69
2023/10/26 09:25:07;;;;;;;14.38;8.57;;;;;;;12.05;48.73;99681.03;4981293;28;20033;-69
2023/10/26 09:27:34;;;;;;;12.90;7.95;;;;;;;12.24;48.23;99680.66;4977010;28;20050;-69
2023/10/26 09:29:59;;;;;;;13.90;8.95;;;;;;;11.98;48.22;99687.63;4978715;28;20034;-68
2023/10/26 09:32:35;;;;;;;14.07;9.25;;;;;;;12.28;48.37;99686.53;4989053;28;20077;-69
2023/10/26 09:35:01;;;;;;;11.75;7.47;;;;;;;12.20;47.65;99689.69;4977812;28;20038;-69
2023/10/26 09:37:27;;;;;;;14.20;9.20;;;;;;;11.84;47.69;99695.50;4975013;28;20042;-69
2023/10/26 09:39:53;;;;;;;12.68;8.23;;;;;;;11.38;48.87;99688.75;4979452;28;20123;-71
2023/10/26 09:42:19;;;;;;;13.30;8.20;;;;;;;11.07;50.19;99695.03;4976196;28;20042;-69
2023/10/26 09:44:45;;;;;;;15.05;8.13;;;;;;;11.17;50.04;99695.31;4980669;28;20451;-69
2023/10/26 09:47:11;;;;;;;12.05;7.57;;;;;;;11.25;49.16;99693.91;4977455;28;20053;-69
2023/10/26 09:49:37;;;;;;;10.88;7.32;;;;;;;10.99;50.38;99690.25;4986364;28;20026;-69
2023/10/26 09:52:03;;;;;;;9.43;6.40;;;;;;;10.69;50.84;99700.75;4987765;28;20499;-69
2023/10/26 09:54:35;;;;;;;13.45;7.80;;;;;;;10.49;51.01;99701.94;4976578;28;20038;-69
2023/10/26 09:57:10;;;;;;;11.35;7.20;;;;;;;10.38;51.59;99696.47;4983185;28;20457;-69
2023/10/26 09:59:37;;;;;;;11.43;7.35;;;;;;;10.63;51.22;99706.34;4980423;28;20733;-69
2023/10/26 10:02:23;;;;;;;11.40;6.90;;;;;;;10.71;50.89;99704.13;4985207;28;20038;-69
2023/10/26 10:04:49;;;;;;;10.02;6.70;;;;;;;10.67;51.08;99710.47;4986617;28;20117;-69
2023/10/26 10:07:19;;;;;;;10.63;6.72;;;;;;;10.69;51.14;99708.59;4977010;28;20189;-69
2023/10/26 10:10:04;;;;;;;12.95;7.07;;;;;;;10.70;50.93;99707.66;4980648;28;20045;-69
2023/10/26 10:12:30;;;;;;;13.70;7.55;;;;;;;10.86;51.03;99702.41;4975983;28;20046;-69
2023/10/26 10:15:06;;;;;;;10.88;6.30;;;;;;;10.92;51.16;99704.63;4982119;28;20034;-69
2023/10/26 10:17:43;;;;;;;10.55;6.43;;;;;;;11.08;50.95;99701.94;4978180;28;20389;-70
2023/10/26 10:20:16;;;;;;;9.15;5.68;;;;;;;11.17;50.55;99696.16;4981369;28;20034;-69
2023/10/26 10:22:48;;;;;;;12.30;6.93;;;;;;;10.91;50.99;99708.19;4993900;28;20057;-69
2023/10/26 10:25:17;;;;;;;12.63;7.30;;;;;;;10.99;50.88;99695.47;4979556;28;20034;-70
2023/10/26 10:27:49;;;;;;;13.13;6.45;;;;;;;11.12;50.07;99697.38;4978055;28;20061;-69
2023/10/26 10:30:18;;;;;;;9.15;6.43;;;;;;;11.23;49.70;99685.31;4976712;28;20041;-70
2023/10/26 10:32:44;;;;;;;9.98;6.20;;;;;;;11.04;50.05;99698.69;4979824;28;21489;-69
2023/10/26 10:35:22;;;;;;;11.63;6.95;;;;;;;10.99;50.29;99682.41;4998255;28;20046;-70
2023/10/26 10:38:17;;;;;;;11.50;6.20;;;;;;;11.20;50.60;99690.75;4979186;28;20038;-69
2023/10/26 10:40:54;;;;;;;7.45;5.30;;;;;;;11.28;50.54;99687.63;4983547;28;20141;-69
2023/10/26 10:43:46;;;;;;;8.57;5.97;;;;;;;11.44;50.51;99677.91;4978981;28;20049;-69
2023/10/26 10:46:12;;;;;;;13.65;6.15;;;;;;;11.58;50.23;99674.44;4980526;28;20034;-69
2023/10/26 10:48:54;;;;;;;11.35;7.13;;;;;;;11.62;49.74;99675.06;4978820;28;20050;-69
2023/10/26 10:51:19;;;;;;;12.25;6.90;;;;;;;11.44;50.19;99677.06;4976848;28;20040;-69
2023/10/26 10:53:50;;;;;;;11.63;6.25;;;;;;;11.53;49.94;99681.72;4983515;28;21680;-71
2023/10/26 10:56:16;;;;;;;9.02;5.70;;;;;;;11.61;50.22;99683.84;4976849;28;20030;-71
2023/10/26 10:58:41;;;;;;;10.60;5.35;;;;;;;11.71;50.26;99674.50;4984277;28;20128;-70
2023/10/26 11:01:07;;;;;;;8.82;5.65;;;;;;;11.72;49.83;99680.56;4978339;28;20597;-71
2023/10/26 11:03:32;;;;;;;8.27;5.93;;;;;;;11.97;50.00;99672.00;4972250;28;20599;-70
2023/10/26 11:05:58;;;;;;;11.05;5.97;;;;;;;11.92;49.12;99679.31;4978939;28;20034;-70
2023/10/26 11:08:25;;;;;;;8.23;5.45;;;;;;;12.10;48.82;99680.72;4978233;28;20050;-69
2023/10/26 11:10:51;;;;;;;10.68;6.15;;;;;;;11.87;48.81;99680.44;4975442;28;20986;-69
2023/10/26 11:13:21;;;;;;;9.40;5.90;;;;;;;11.87;48.88;99685.69;4957037;28;20157;-69
2023/10/26 11:15:47;;;;;;;7.82;5.45;;;;;;;11.76;49.40;99677.66;4980866;28;20041;-68
2023/10/26 11:18:15;;;;;;;10.93;6.78;;;;;;;11.63;49.55;99677.59;4975782;28;20125;-69
2023/10/26 11:20:45;;;;;;;13.88;8.95;;;;;;;11.48;49.89;99677.72;4990000;28;20038;-69
2023/10/26 11:23:12;;;;;;;29.02;15.43;;;;;;;11.24;50.23;99688.75;4976339;28;20030;-68